createdAt,value
2023-12-10T00:01:03.714Z,99236.91
2023-12-10T00:03:30.560Z,99241.59
2023-12-10T00:06:04.412Z,99245.34
2023-12-10T00:08:38.011Z,99221.09
2023-12-10T00:11:04.804Z,99228.97
2023-12-10T00:13:31.327Z,99219.66
2023-12-10T00:15:57.924Z,99192.91
2023-12-10T00:18:24.698Z,99215.19
2023-12-10T00:20:51.333Z,99209.41
2023-12-10T00:23:17.870Z,99218.91
2023-12-10T00:25:44.990Z,99211.53
2023-12-10T00:28:11.641Z,99220.00
2023-12-10T00:30:38.870Z,99226.94
2023-12-10T00:33:05.524Z,99226.16
2023-12-10T00:35:32.170Z,99229.13
2023-12-10T00:37:58.747Z,99224.03
2023-12-10T00:40:25.312Z,99222.63
2023-12-10T00:42:52.491Z,99218.81
2023-12-10T00:45:19.212Z,99215.97
2023-12-10T00:47:45.834Z,99172.34
2023-12-10T00:50:12.733Z,99198.75
2023-12-10T00:52:39.743Z,99210.59
2023-12-10T00:55:06.517Z,99204.06
2023-12-10T00:57:33.941Z,99163.97
2023-12-10T01:00:00.588Z,99191.44
2023-12-10T01:02:27.517Z,99177.53
2023-12-10T01:04:54.760Z,99181.34
2023-12-10T01:07:21.363Z,99184.06
2023-12-10T01:09:48.029Z,99193.88
2023-12-10T01:12:14.590Z,99190.72
2023-12-10T01:14:41.173Z,99187.22
2023-12-10T01:17:09.342Z,99183.25
2023-12-10T01:19:36.204Z,99188.94
2023-12-10T01:22:04.654Z,99186.69
2023-12-10T01:24:31.431Z,99189.34
2023-12-10T01:26:57.976Z,99182.59
2023-12-10T01:29:26.890Z,99172.56
2023-12-10T01:31:53.470Z,99167.53
2023-12-10T01:34:20.249Z,99166.59
2023-12-10T01:36:47.030Z,99177.88
2023-12-10T01:39:16.352Z,99170.28
2023-12-10T01:41:43.046Z,99165.31
2023-12-10T01:44:11.142Z,99144.25
2023-12-10T01:46:37.942Z,99110.97
2023-12-10T01:49:09.163Z,99158.72
2023-12-10T01:51:37.896Z,99146.56
2023-12-10T01:54:04.931Z,99129.50
2023-12-10T01:56:31.822Z,99128.91
2023-12-10T01:58:59.604Z,99133.53
2023-12-10T02:01:27.314Z,99132.38
2023-12-10T02:03:54.789Z,99114.06
2023-12-10T02:06:23.447Z,99132.69
2023-12-10T02:08:50.034Z,99132.81
2023-12-10T02:11:17.238Z,99123.44
2023-12-10T02:13:43.858Z,99135.38
2023-12-10T02:16:10.465Z,99114.75
2023-12-10T02:18:37.210Z,99094.88
2023-12-10T02:21:04.108Z,99114.25
2023-12-10T02:23:47.609Z,99092.63
2023-12-10T02:26:14.247Z,99101.09
2023-12-10T02:28:40.922Z,99087.72
2023-12-10T02:31:08.097Z,99049.38
2023-12-10T02:33:34.979Z,99084.09
2023-12-10T02:36:01.674Z,99059.06
2023-12-10T02:38:28.348Z,99028.69
2023-12-10T02:40:55.495Z,99048.16
2023-12-10T02:43:22.370Z,99034.66
2023-12-10T02:45:49.113Z,99048.22
2023-12-10T02:48:16.008Z,99001.38
2023-12-10T02:50:42.706Z,99032.84
2023-12-10T02:53:09.497Z,99025.06
2023-12-10T02:55:36.048Z,98989.19
2023-12-10T02:58:05.582Z,99026.13
2023-12-10T03:00:32.831Z,99032.22
2023-12-10T03:02:59.770Z,99031.75
2023-12-10T03:05:26.413Z,99019.25
2023-12-10T03:07:53.630Z,99014.03
2023-12-10T03:10:21.229Z,99016.94
2023-12-10T03:12:47.886Z,99004.25
2023-12-10T03:15:14.555Z,99019.53
2023-12-10T03:17:41.221Z,98983.50
2023-12-10T03:20:10.549Z,99024.47
2023-12-10T03:22:37.235Z,99023.69
2023-12-10T03:25:04.832Z,99031.22
2023-12-10T03:27:31.400Z,99033.47
2023-12-10T03:29:58.206Z,99048.03
2023-12-10T03:32:24.849Z,99053.16
2023-12-10T03:34:51.478Z,99059.78
2023-12-10T03:37:18.108Z,99020.25
2023-12-10T03:39:44.743Z,99053.03
2023-12-10T03:42:11.391Z,99045.34
2023-12-10T03:44:37.927Z,99048.75
2023-12-10T03:47:04.663Z,99047.09
2023-12-10T03:49:31.392Z,99048.94
2023-12-10T03:51:58.279Z,99057.09
2023-12-10T03:54:25.518Z,99044.72
2023-12-10T03:56:52.062Z,99026.19
2023-12-10T03:59:18.677Z,99024.28
2023-12-10T04:01:45.305Z,99031.94
2023-12-10T04:04:15.002Z,99033.59
2023-12-10T04:06:42.270Z,99012.72
2023-12-10T04:09:09.543Z,99043.00
2023-12-10T04:11:37.075Z,99023.22
2023-12-10T04:14:04.517Z,99034.59
2023-12-10T04:16:31.550Z,99035.78
2023-12-10T04:18:58.543Z,99002.81
2023-12-10T04:21:25.278Z,99027.06
2023-12-10T04:23:52.109Z,99026.31
2023-12-10T04:26:18.885Z,99018.44
2023-12-10T04:28:45.928Z,98959.38
2023-12-10T04:31:12.727Z,99027.06
2023-12-10T04:33:39.516Z,99021.16
2023-12-10T04:36:06.613Z,99032.28
2023-12-10T04:38:33.452Z,99025.31
2023-12-10T04:41:00.091Z,99040.47
2023-12-10T04:43:26.669Z,99013.25
2023-12-10T04:45:53.331Z,99044.38
2023-12-10T04:48:20.094Z,99050.66
2023-12-10T04:50:46.765Z,99012.44
2023-12-10T04:53:13.290Z,99035.50
2023-12-10T04:55:40.012Z,99047.47
2023-12-10T04:58:06.549Z,99022.06
2023-12-10T05:00:33.127Z,99051.38
2023-12-10T05:02:59.739Z,99042.31
2023-12-10T05:05:26.340Z,99012.38
2023-12-10T05:07:52.908Z,99032.22
2023-12-10T05:10:19.805Z,99034.53
2023-12-10T05:12:46.882Z,99032.28
2023-12-10T05:15:13.570Z,99022.50
2023-12-10T05:17:40.350Z,99023.69
2023-12-10T05:20:08.942Z,99019.97
2023-12-10T05:22:35.607Z,99023.56
2023-12-10T05:25:02.400Z,98992.91
2023-12-10T05:27:33.694Z,98999.03
2023-12-10T05:30:01.068Z,99035.75
2023-12-10T05:32:29.166Z,99040.13
2023-12-10T05:34:56.003Z,99036.97
2023-12-10T05:37:22.770Z,99033.31
2023-12-10T05:39:49.340Z,98999.31
2023-12-10T05:42:15.963Z,99017.59
2023-12-10T05:44:42.537Z,99012.72
2023-12-10T05:47:09.047Z,99036.81
2023-12-10T05:49:35.634Z,99038.47
2023-12-10T05:52:02.269Z,98999.28
2023-12-10T05:54:28.970Z,99044.81
2023-12-10T05:56:55.814Z,99039.72
2023-12-10T05:59:22.320Z,99012.16
2023-12-10T06:01:49.052Z,99049.09
2023-12-10T06:04:15.734Z,99052.09
2023-12-10T06:06:42.366Z,99041.06
2023-12-10T06:09:10.546Z,99042.91
2023-12-10T06:11:37.135Z,99040.06
2023-12-10T06:14:03.699Z,99037.09
2023-12-10T06:16:30.461Z,99037.63
2023-12-10T06:18:57.167Z,99031.97
2023-12-10T06:21:23.896Z,99046.88
2023-12-10T06:23:50.485Z,99042.66
2023-12-10T06:26:16.986Z,99045.75
2023-12-10T06:28:43.578Z,99041.97
2023-12-10T06:31:10.730Z,99051.06
2023-12-10T06:33:37.596Z,99054.53
2023-12-10T06:36:04.848Z,98991.81
2023-12-10T06:38:31.401Z,99060.94
2023-12-10T06:40:57.960Z,99058.56
2023-12-10T06:43:25.858Z,99078.53
2023-12-10T06:45:52.875Z,99016.16
2023-12-10T06:48:19.743Z,99074.72
2023-12-10T06:50:46.359Z,99097.13
2023-12-10T06:53:12.889Z,99088.19
2023-12-10T06:55:39.437Z,99038.69
2023-12-10T06:58:05.968Z,99098.97
2023-12-10T07:00:32.660Z,99099.69
2023-12-10T07:02:59.293Z,99086.28
2023-12-10T07:05:25.881Z,99061.66
2023-12-10T07:07:52.437Z,99090.22
2023-12-10T07:10:18.982Z,99100.34
2023-12-10T07:12:45.622Z,99095.13
2023-12-10T07:15:12.294Z,99074.31
2023-12-10T07:17:39.014Z,99108.03
2023-12-10T07:20:06.380Z,99100.91
2023-12-10T07:22:33.223Z,99104.72
2023-12-10T07:25:00.434Z,99099.22
2023-12-10T07:27:27.101Z,99101.34
2023-12-10T07:29:53.712Z,99120.28
2023-12-10T07:32:20.238Z,99104.16
2023-12-10T07:34:46.821Z,99056.31
2023-12-10T07:37:13.426Z,99111.03
2023-12-10T07:39:40.421Z,99041.31
2023-12-10T07:42:07.155Z,99117.53
2023-12-10T07:44:34.525Z,99122.13
2023-12-10T07:47:01.307Z,99120.72
2023-12-10T07:49:28.065Z,99125.69
2023-12-10T07:51:54.884Z,99116.25
2023-12-10T07:54:21.664Z,99123.25
2023-12-10T07:56:48.232Z,99120.13
2023-12-10T07:59:14.834Z,99118.03
2023-12-10T08:01:41.649Z,99132.84
2023-12-10T08:04:08.314Z,99137.03
2023-12-10T08:06:35.123Z,99122.88
2023-12-10T08:09:05.502Z,99105.00
2023-12-10T08:11:32.823Z,99130.00
2023-12-10T08:14:00.506Z,99137.28
2023-12-10T08:16:27.061Z,99144.53
2023-12-10T08:18:53.663Z,99140.84
2023-12-10T08:21:20.248Z,99144.16
2023-12-10T08:23:46.937Z,99140.22
2023-12-10T08:26:13.435Z,99152.03
2023-12-10T08:28:40.030Z,99147.91
2023-12-10T08:31:06.721Z,99151.63
2023-12-10T08:33:33.396Z,99135.47
2023-12-10T08:35:59.978Z,99148.75
2023-12-10T08:38:26.484Z,99157.19
2023-12-10T08:40:53.132Z,99161.56
2023-12-10T08:43:21.659Z,99156.53
2023-12-10T08:45:48.311Z,99161.81
2023-12-10T08:48:15.567Z,99155.06
2023-12-10T08:50:42.303Z,99160.44
2023-12-10T08:53:08.853Z,99164.63
2023-12-10T08:55:35.409Z,99185.34
2023-12-10T08:58:01.972Z,99198.31
2023-12-10T09:00:28.563Z,99193.28
2023-12-10T09:02:55.172Z,99204.38
2023-12-10T09:05:22.457Z,99196.66
2023-12-10T09:07:49.049Z,99199.56
2023-12-10T09:10:15.820Z,99193.59
2023-12-10T09:12:42.955Z,99164.22
2023-12-10T09:15:10.855Z,99203.63
2023-12-10T09:17:37.472Z,99201.16
2023-12-10T09:20:05.563Z,99201.41
2023-12-10T09:22:32.345Z,99196.47
2023-12-10T09:24:59.034Z,99182.72
2023-12-10T09:27:25.599Z,99196.69
2023-12-10T09:29:53.068Z,99205.16
2023-12-10T09:32:21.901Z,99200.00
2023-12-10T09:34:48.631Z,99205.75
2023-12-10T09:37:15.541Z,99198.69
2023-12-10T09:39:42.412Z,99201.91
2023-12-10T09:42:09.058Z,99174.22
2023-12-10T09:44:35.576Z,99204.91
2023-12-10T09:47:02.601Z,99200.28
2023-12-10T09:49:30.665Z,99191.88
2023-12-10T09:51:57.448Z,99205.00
2023-12-10T09:54:27.512Z,99202.91
2023-12-10T09:56:56.013Z,99210.66
2023-12-10T09:59:22.561Z,99189.59
2023-12-10T10:01:54.528Z,99219.44
2023-12-10T10:04:21.415Z,99215.31
2023-12-10T10:06:48.126Z,99220.53
2023-12-10T10:09:24.797Z,99217.13
2023-12-10T10:11:58.969Z,99202.13
2023-12-10T10:14:25.546Z,99203.34
2023-12-10T10:16:52.135Z,99184.22
2023-12-10T10:19:18.991Z,99171.66
2023-12-10T10:21:46.229Z,99203.94
2023-12-10T10:24:14.146Z,99208.44
2023-12-10T10:26:41.724Z,99212.56
2023-12-10T10:29:09.137Z,99200.69
2023-12-10T10:31:35.955Z,99210.31
2023-12-10T10:34:07.315Z,99197.56
2023-12-10T10:36:34.228Z,99217.31
2023-12-10T10:39:01.066Z,99186.44
2023-12-10T10:41:30.113Z,99222.91
2023-12-10T10:44:00.019Z,99232.06
2023-12-10T10:46:27.231Z,99206.66
2023-12-10T10:48:54.119Z,99220.75
2023-12-10T10:51:26.602Z,99220.13
2023-12-10T10:53:56.017Z,99232.00
2023-12-10T10:56:23.495Z,99227.56
2023-12-10T10:58:50.090Z,99215.63
2023-12-10T11:01:43.105Z,99222.88
2023-12-10T11:04:14.267Z,99221.38
2023-12-10T11:06:42.101Z,99189.06
2023-12-10T11:09:09.919Z,99207.00
2023-12-10T11:11:40.741Z,99196.50
2023-12-10T11:14:20.536Z,99220.50
2023-12-10T11:16:51.092Z,99229.03
2023-12-10T11:19:19.724Z,99208.47
2023-12-10T11:21:46.427Z,99228.31
2023-12-10T11:24:13.488Z,99221.47
2023-12-10T11:26:40.244Z,99242.19
2023-12-10T11:29:07.487Z,99244.47
2023-12-10T11:31:35.819Z,99244.34
2023-12-10T11:34:02.986Z,99236.38
2023-12-10T11:36:36.611Z,99234.72
2023-12-10T11:39:05.367Z,99258.47
2023-12-10T11:41:32.550Z,99249.13
2023-12-10T11:43:59.245Z,99243.84
2023-12-10T11:46:31.456Z,99242.81
2023-12-10T11:49:01.977Z,99257.03
2023-12-10T11:51:28.639Z,99267.59
2023-12-10T11:53:55.774Z,99256.44
2023-12-10T11:56:22.715Z,99271.16
2023-12-10T11:58:49.290Z,99251.19
2023-12-10T12:01:17.969Z,99215.63
2023-12-10T12:03:45.123Z,99282.44
2023-12-10T12:06:11.899Z,99282.44
2023-12-10T12:08:38.531Z,99281.50
2023-12-10T12:11:05.264Z,99291.47
2023-12-10T12:13:31.859Z,99289.84
2023-12-10T12:15:58.550Z,99281.66
2023-12-10T12:18:26.744Z,99296.22
2023-12-10T12:20:53.619Z,99294.13
2023-12-10T12:23:20.198Z,99297.94
2023-12-10T12:25:47.439Z,99306.13
2023-12-10T12:28:14.677Z,99309.16
2023-12-10T12:30:41.410Z,99311.56
2023-12-10T12:33:08.217Z,99308.19
2023-12-10T12:35:34.903Z,99308.91
2023-12-10T12:38:01.483Z,99306.25
2023-12-10T12:40:28.118Z,99300.75
2023-12-10T12:42:54.780Z,99312.53
2023-12-10T12:45:21.804Z,99303.88
2023-12-10T12:47:49.924Z,99315.75
2023-12-10T12:50:17.620Z,99314.66
2023-12-10T12:52:44.216Z,99321.72
2023-12-10T12:55:10.851Z,99329.66
2023-12-10T12:57:38.114Z,99320.13
2023-12-10T13:00:06.689Z,99336.47
2023-12-10T13:02:33.680Z,99338.72
2023-12-10T13:05:00.560Z,99337.63
2023-12-10T13:07:27.429Z,99306.66
2023-12-10T13:09:54.214Z,99338.91
2023-12-10T13:12:20.830Z,99300.88
2023-12-10T13:14:47.926Z,99340.50
2023-12-10T13:17:14.490Z,99340.78
2023-12-10T13:19:41.824Z,99340.22
2023-12-10T13:22:08.614Z,99336.94
2023-12-10T13:24:35.330Z,99347.25
2023-12-10T13:27:01.926Z,99354.00
2023-12-10T13:29:28.510Z,99355.03
2023-12-10T13:31:55.287Z,99328.94
2023-12-10T13:34:22.236Z,99350.50
2023-12-10T13:36:48.904Z,99334.56
2023-12-10T13:39:15.417Z,99358.47
2023-12-10T13:41:42.036Z,99364.72
2023-12-10T13:44:08.558Z,99354.59
2023-12-10T13:46:35.130Z,99352.28
2023-12-10T13:49:02.645Z,99363.19
2023-12-10T13:51:29.298Z,99366.41
2023-12-10T13:53:55.969Z,99299.69
2023-12-10T13:56:22.517Z,99367.22
2023-12-10T13:58:49.071Z,99339.66
2023-12-10T14:01:16.988Z,99350.84
2023-12-10T14:03:43.835Z,99374.88
2023-12-10T14:06:10.434Z,99377.63
2023-12-10T14:08:37.019Z,99376.41
2023-12-10T14:11:03.689Z,99383.88
2023-12-10T14:13:30.236Z,99369.53
2023-12-10T14:15:56.897Z,99383.47
2023-12-10T14:18:23.990Z,99392.28
2023-12-10T14:20:50.745Z,99385.25
2023-12-10T14:23:17.293Z,99388.59
2023-12-10T14:25:45.014Z,99396.94
2023-12-10T14:28:12.490Z,99397.50
2023-12-10T14:30:39.763Z,99412.19
2023-12-10T14:33:06.687Z,99412.19
2023-12-10T14:35:33.399Z,99390.75
2023-12-10T14:37:59.975Z,99408.88
2023-12-10T14:40:26.618Z,99421.88
2023-12-10T14:42:53.274Z,99433.81
2023-12-10T14:45:19.957Z,99427.75
2023-12-10T14:47:46.778Z,99437.81
2023-12-10T14:50:13.418Z,99444.66
2023-12-10T14:52:39.965Z,99442.75
2023-12-10T14:55:07.017Z,99446.84
2023-12-10T14:57:33.787Z,99449.22
2023-12-10T15:00:00.594Z,99450.81
2023-12-10T15:02:27.217Z,99461.25
2023-12-10T15:04:53.763Z,99463.94
2023-12-10T15:07:20.383Z,99456.09
2023-12-10T15:09:47.544Z,99447.41
2023-12-10T15:12:14.330Z,99453.88
2023-12-10T15:14:41.035Z,99471.81
2023-12-10T15:17:08.564Z,99469.59
2023-12-10T15:19:43.448Z,99436.59
2023-12-10T15:22:12.429Z,99476.28
2023-12-10T15:24:39.268Z,99448.72
2023-12-10T15:27:05.857Z,99482.56
2023-12-10T15:29:32.403Z,99449.00
2023-12-10T15:31:58.989Z,99431.22
2023-12-10T15:34:30.463Z,99488.75
2023-12-10T15:36:57.554Z,99492.06
2023-12-10T15:39:24.808Z,99486.66
2023-12-10T15:41:51.476Z,99504.09
2023-12-10T15:44:18.056Z,99511.09
2023-12-10T15:46:45.092Z,99506.88
2023-12-10T15:49:11.738Z,99489.81
2023-12-10T15:51:38.488Z,99506.53
2023-12-10T15:54:05.493Z,99510.84
2023-12-10T15:56:32.099Z,99498.84
2023-12-10T15:58:58.651Z,99493.03
2023-12-10T16:01:26.114Z,99515.44
2023-12-10T16:03:52.897Z,99516.44
2023-12-10T16:06:19.727Z,99517.09
2023-12-10T16:08:46.410Z,99515.13
2023-12-10T16:11:13.021Z,99520.66
2023-12-10T16:13:39.800Z,99525.69
2023-12-10T16:16:06.745Z,99531.25
2023-12-10T16:18:33.436Z,99526.66
2023-12-10T16:21:02.441Z,99536.41
2023-12-10T16:23:29.663Z,99540.47
2023-12-10T16:25:56.442Z,99542.75
2023-12-10T16:28:23.004Z,99543.16
2023-12-10T16:30:49.665Z,99521.53
2023-12-10T16:33:16.296Z,99529.84
2023-12-10T16:35:42.795Z,99535.97
2023-12-10T16:38:09.314Z,99538.59
2023-12-10T16:40:35.839Z,99515.41
2023-12-10T16:43:04.282Z,99537.06
2023-12-10T16:45:30.940Z,99545.28
2023-12-10T16:47:57.577Z,99544.97
2023-12-10T16:50:24.210Z,99556.16
2023-12-10T16:52:50.778Z,99556.78
2023-12-10T16:55:17.392Z,99520.91
2023-12-10T16:57:44.544Z,99561.84
2023-12-10T17:00:12.972Z,99563.00
2023-12-10T17:02:39.752Z,99564.56
2023-12-10T17:05:06.781Z,99553.13
2023-12-10T17:07:34.139Z,99563.41
2023-12-10T17:10:01.091Z,99554.63
2023-12-10T17:12:27.726Z,99569.75
2023-12-10T17:14:54.324Z,99568.56
2023-12-10T17:17:20.841Z,99564.47
2023-12-10T17:19:47.566Z,99569.19
2023-12-10T17:22:14.235Z,99571.75
2023-12-10T17:24:41.794Z,99567.91
2023-12-10T17:27:08.430Z,99582.97
2023-12-10T17:29:35.005Z,99578.03
2023-12-10T17:32:01.551Z,99584.53
2023-12-10T17:34:28.074Z,99581.88
2023-12-10T17:36:54.965Z,99578.78
2023-12-10T17:39:21.485Z,99575.66
2023-12-10T17:41:48.163Z,99583.03
2023-12-10T17:44:17.970Z,99587.44
2023-12-10T17:46:44.542Z,99587.91
2023-12-10T17:49:11.337Z,99588.78
2023-12-10T17:51:38.204Z,99587.84
2023-12-10T17:54:07.310Z,99594.44
2023-12-10T17:56:33.937Z,99578.34
2023-12-10T17:59:01.652Z,99587.97
2023-12-10T18:01:28.250Z,99585.72
2023-12-10T18:03:55.012Z,99592.84
2023-12-10T18:06:21.612Z,99560.50
2023-12-10T18:08:48.218Z,99585.13
2023-12-10T18:11:16.940Z,99562.13
2023-12-10T18:13:43.594Z,99572.50
2023-12-10T18:16:23.696Z,99591.16
2023-12-10T18:18:50.518Z,99601.31
2023-12-10T18:21:17.617Z,99588.78
2023-12-10T18:23:47.824Z,99593.09
2023-12-10T18:26:16.537Z,99576.16
2023-12-10T18:28:46.270Z,99602.13
2023-12-10T18:31:13.602Z,99591.28
2023-12-10T18:33:40.586Z,99591.34
2023-12-10T18:36:07.855Z,99549.75
2023-12-10T18:38:34.531Z,99588.53
2023-12-10T18:41:01.510Z,99584.38
2023-12-10T18:43:28.995Z,99582.06
2023-12-10T18:45:57.074Z,99584.38
2023-12-10T18:48:23.933Z,99573.31
2023-12-10T18:50:50.694Z,99582.00
2023-12-10T18:53:17.360Z,99581.50
2023-12-10T18:55:44.700Z,99579.19
2023-12-10T18:58:11.679Z,99575.06
2023-12-10T19:00:42.351Z,99576.31
2023-12-10T19:03:10.345Z,99574.38
2023-12-10T19:05:37.124Z,99587.31
2023-12-10T19:08:04.032Z,99577.72
2023-12-10T19:10:30.712Z,99573.28
2023-12-10T19:12:57.400Z,99557.72
2023-12-10T19:15:24.152Z,99557.59
2023-12-10T19:17:50.795Z,99565.66
2023-12-10T19:20:25.108Z,99560.25
2023-12-10T19:22:52.528Z,99564.81
2023-12-10T19:25:19.851Z,99571.53
2023-12-10T19:27:46.455Z,99565.91
2023-12-10T19:30:13.544Z,99577.16
2023-12-10T19:32:40.153Z,99580.19
2023-12-10T19:35:09.526Z,99582.13
2023-12-10T19:37:38.217Z,99579.28
2023-12-10T19:40:06.347Z,99588.72
2023-12-10T19:42:33.250Z,99578.50
2023-12-10T19:44:59.954Z,99581.34
2023-12-10T19:47:26.985Z,99555.41
2023-12-10T19:49:53.721Z,99586.91
2023-12-10T19:52:20.442Z,99583.31
2023-12-10T19:54:47.170Z,99539.13
2023-12-10T19:57:18.225Z,99565.03
2023-12-10T19:59:45.791Z,99570.63
2023-12-10T20:02:12.512Z,99573.06
2023-12-10T20:04:39.303Z,99582.47
2023-12-10T20:07:06.145Z,99572.72
2023-12-10T20:09:32.993Z,99566.44
2023-12-10T20:11:59.630Z,99567.41
2023-12-10T20:14:26.307Z,99550.47
2023-12-10T20:16:54.547Z,99548.41
2023-12-10T20:19:21.617Z,99556.19
2023-12-10T20:21:48.338Z,99557.03
2023-12-10T20:24:26.753Z,99542.28
2023-12-10T20:26:57.670Z,99507.13
2023-12-10T20:29:26.347Z,99568.06
2023-12-10T20:31:52.892Z,99563.81
2023-12-10T20:34:26.995Z,99564.41
2023-12-10T20:36:59.391Z,99535.69
2023-12-10T20:39:26.026Z,99564.00
2023-12-10T20:41:52.574Z,99571.78
2023-12-10T20:44:19.065Z,99581.38
2023-12-10T20:46:45.637Z,99562.38
2023-12-10T20:49:12.261Z,99561.00
2023-12-10T20:51:38.852Z,99553.81
2023-12-10T20:54:05.456Z,99566.03
2023-12-10T20:56:31.943Z,99569.22
2023-12-10T20:58:58.444Z,99568.00
2023-12-10T21:01:28.215Z,99523.31
2023-12-10T21:03:55.042Z,99554.19
2023-12-10T21:06:21.859Z,99550.56
2023-12-10T21:08:48.547Z,99525.09
2023-12-10T21:11:15.291Z,99537.78
2023-12-10T21:13:42.056Z,99559.63
2023-12-10T21:16:11.283Z,99562.56
2023-12-10T21:18:38.623Z,99551.78
2023-12-10T21:21:06.316Z,99544.09
2023-12-10T21:23:34.931Z,99545.56
2023-12-10T21:26:03.956Z,99538.16
2023-12-10T21:28:31.151Z,99535.75
2023-12-10T21:30:58.227Z,99540.91
2023-12-10T21:33:25.148Z,99505.78
2023-12-10T21:35:52.206Z,99505.19
2023-12-10T21:38:18.793Z,99530.38
2023-12-10T21:40:45.301Z,99513.28
2023-12-10T21:43:11.938Z,99507.75
2023-12-10T21:45:38.522Z,99507.50
2023-12-10T21:48:05.880Z,99536.16
2023-12-10T21:50:32.485Z,99529.59
2023-12-10T21:52:59.059Z,99529.31
2023-12-10T21:55:25.634Z,99530.47
2023-12-10T21:57:52.277Z,99520.72
2023-12-10T22:00:19.424Z,99451.28
2023-12-10T22:02:46.867Z,99483.69
2023-12-10T22:05:13.538Z,99528.56
2023-12-10T22:07:40.158Z,99525.03
2023-12-10T22:10:10.277Z,99529.25
2023-12-10T22:12:36.925Z,99521.06
2023-12-10T22:15:04.674Z,99516.41
2023-12-10T22:17:31.642Z,99519.66
2023-12-10T22:19:59.096Z,99509.25
2023-12-10T22:22:28.769Z,99433.78
2023-12-10T22:24:57.042Z,99494.13
2023-12-10T22:27:23.663Z,99524.03
2023-12-10T22:29:51.867Z,99524.63
2023-12-10T22:32:18.468Z,99499.44
2023-12-10T22:34:45.124Z,99509.84
2023-12-10T22:37:11.885Z,99475.16
2023-12-10T22:39:38.481Z,99506.94
2023-12-10T22:42:05.637Z,99504.63
2023-12-10T22:44:32.197Z,99498.03
2023-12-10T22:46:58.705Z,99483.28
2023-12-10T22:49:25.306Z,99492.53
2023-12-10T22:51:53.310Z,99483.78
2023-12-10T22:54:19.912Z,99482.50
2023-12-10T22:56:46.544Z,99492.16
2023-12-10T22:59:13.198Z,99493.44
2023-12-10T23:01:39.831Z,99484.56
2023-12-10T23:04:07.356Z,99455.59
2023-12-10T23:06:34.117Z,99479.22
2023-12-10T23:09:00.713Z,99464.72
2023-12-10T23:11:27.297Z,99468.38
2023-12-10T23:13:53.821Z,99439.88
2023-12-10T23:16:20.364Z,99438.94
2023-12-10T23:18:47.037Z,99481.47
2023-12-10T23:21:13.575Z,99476.47
2023-12-10T23:23:40.704Z,99467.88
2023-12-10T23:26:09.977Z,99461.53
2023-12-10T23:28:36.530Z,99417.19
2023-12-10T23:31:03.395Z,99446.09
2023-12-10T23:33:30.240Z,99453.63
2023-12-10T23:35:57.151Z,99456.69
2023-12-10T23:38:23.642Z,99444.13
2023-12-10T23:40:50.156Z,99435.81
2023-12-10T23:43:16.715Z,99434.19
2023-12-10T23:45:43.248Z,99439.38
2023-12-10T23:48:09.893Z,99429.34
2023-12-10T23:50:36.534Z,99432.50
2023-12-10T23:53:03.163Z,99431.97
2023-12-10T23:55:29.722Z,99431.38
2023-12-10T23:57:56.308Z,99435.53
